sensor_id;sensor_type;location;lat;lon;timestamp;temperature;humidity
26537;DHT22;14204;51.262;5.488;2023-04-03T00:01:13;5.30;99.90
26537;DHT22;14204;51.262;5.488;2023-04-03T00:03:40;5.30;99.90
26537;DHT22;14204;51.262;5.488;2023-04-03T00:06:07;5.30;99.90
26537;DHT22;14204;51.262;5.488;2023-04-03T00:08:35;5.20;99.90
26537;DHT22;14204;51.262;5.488;2023-04-03T00:11:01;5.20;99.90
26537;DHT22;14204;51.262;5.488;2023-04-03T00:13:27;5.10;99.90
26537;DHT22;14204;51.262;5.488;2023-04-03T00:15:52;5.10;99.90
26537;DHT22;14204;51.262;5.488;2023-04-03T00:18:18;5.10;99.90
26537;DHT22;14204;51.262;5.488;2023-04-03T00:20:44;5.00;99.90
26537;DHT22;14204;51.262;5.488;2023-04-03T00:23:10;5.00;99.90
26537;DHT22;14204;51.262;5.488;2023-04-03T00:25:36;5.00;99.90
26537;DHT22;14204;51.262;5.488;2023-04-03T00:28:02;5.00;99.90
26537;DHT22;14204;51.262;5.488;2023-04-03T00:30:28;5.00;99.90
26537;DHT22;14204;51.262;5.488;2023-04-03T00:32:54;5.00;99.90
26537;DHT22;14204;51.262;5.488;2023-04-03T00:35:20;5.00;99.90
26537;DHT22;14204;51.262;5.488;2023-04-03T00:37:46;5.00;99.90
26537;DHT22;14204;51.262;5.488;2023-04-03T00:40:14;5.00;99.90
26537;DHT22;14204;51.262;5.488;2023-04-03T00:42:41;5.00;99.90
26537;DHT22;14204;51.262;5.488;2023-04-03T00:47:36;5.00;99.90
26537;DHT22;14204;51.262;5.488;2023-04-03T00:50:03;5.00;99.90
26537;DHT22;14204;51.262;5.488;2023-04-03T00:52:30;4.90;99.90
26537;DHT22;14204;51.262;5.488;2023-04-03T00:54:59;5.00;99.90
26537;DHT22;14204;51.262;5.488;2023-04-03T00:57:27;4.90;99.90
26537;DHT22;14204;51.262;5.488;2023-04-03T00:59:59;4.90;99.90
26537;DHT22;14204;51.262;5.488;2023-04-03T01:02:27;4.90;99.90
26537;DHT22;14204;51.262;5.488;2023-04-03T01:04:52;4.80;99.90
26537;DHT22;14204;51.262;5.488;2023-04-03T01:07:27;4.90;99.90
26537;DHT22;14204;51.262;5.488;2023-04-03T01:09:58;4.90;99.90
26537;DHT22;14204;51.262;5.488;2023-04-03T01:12:30;4.90;99.90
26537;DHT22;14204;51.262;5.488;2023-04-03T01:15:00;4.90;99.90
26537;DHT22;14204;51.262;5.488;2023-04-03T01:25:41;4.80;99.90
26537;DHT22;14204;51.262;5.488;2023-04-03T01:28:09;4.80;99.90
26537;DHT22;14204;51.262;5.488;2023-04-03T01:33:33;4.70;99.90
26537;DHT22;14204;51.262;5.488;2023-04-03T01:36:00;4.80;99.90
26537;DHT22;14204;51.262;5.488;2023-04-03T01:38:26;4.70;99.90
26537;DHT22;14204;51.262;5.488;2023-04-03T01:40:52;4.60;99.90
26537;DHT22;14204;51.262;5.488;2023-04-03T01:43:17;4.60;99.90
26537;DHT22;14204;51.262;5.488;2023-04-03T01:45:43;4.50;99.90
26537;DHT22;14204;51.262;5.488;2023-04-03T01:48:08;4.50;99.90
26537;DHT22;14204;51.262;5.488;2023-04-03T01:50:34;4.50;99.90
26537;DHT22;14204;51.262;5.488;2023-04-03T01:53:00;4.50;99.90
26537;DHT22;14204;51.262;5.488;2023-04-03T01:55:25;4.50;99.90
26537;DHT22;14204;51.262;5.488;2023-04-03T01:57:51;4.50;99.90
26537;DHT22;14204;51.262;5.488;2023-04-03T02:00:17;4.50;99.90
26537;DHT22;14204;51.262;5.488;2023-04-03T02:02:42;4.50;99.90
26537;DHT22;14204;51.262;5.488;2023-04-03T02:05:08;4.50;99.90
26537;DHT22;14204;51.262;5.488;2023-04-03T02:07:34;4.40;99.90
26537;DHT22;14204;51.262;5.488;2023-04-03T02:10:00;4.40;99.90
26537;DHT22;14204;51.262;5.488;2023-04-03T02:12:25;4.40;99.90
26537;DHT22;14204;51.262;5.488;2023-04-03T02:14:51;4.30;99.90
26537;DHT22;14204;51.262;5.488;2023-04-03T02:17:17;4.40;99.90
26537;DHT22;14204;51.262;5.488;2023-04-03T02:19:43;4.30;99.90
26537;DHT22;14204;51.262;5.488;2023-04-03T02:22:09;4.30;99.90
26537;DHT22;14204;51.262;5.488;2023-04-03T02:24:35;4.30;99.90
26537;DHT22;14204;51.262;5.488;2023-04-03T02:27:00;4.30;99.90
26537;DHT22;14204;51.262;5.488;2023-04-03T02:29:26;4.30;99.90
26537;DHT22;14204;51.262;5.488;2023-04-03T02:31:52;4.30;99.90
26537;DHT22;14204;51.262;5.488;2023-04-03T02:34:17;4.30;99.90
26537;DHT22;14204;51.262;5.488;2023-04-03T02:36:43;4.30;99.90
26537;DHT22;14204;51.262;5.488;2023-04-03T02:39:09;4.30;99.90
26537;DHT22;14204;51.262;5.488;2023-04-03T02:41:35;4.20;99.90
26537;DHT22;14204;51.262;5.488;2023-04-03T02:44:02;4.20;99.90
26537;DHT22;14204;51.262;5.488;2023-04-03T02:46:28;4.20;99.90
26537;DHT22;14204;51.262;5.488;2023-04-03T02:48:53;4.20;99.90
26537;DHT22;14204;51.262;5.488;2023-04-03T02:51:19;4.20;99.90
26537;DHT22;14204;51.262;5.488;2023-04-03T02:53:45;4.10;99.90
26537;DHT22;14204;51.262;5.488;2023-04-03T02:56:10;4.10;99.90
26537;DHT22;14204;51.262;5.488;2023-04-03T02:58:36;4.10;99.90
26537;DHT22;14204;51.262;5.488;2023-04-03T03:01:02;4.10;99.90
26537;DHT22;14204;51.262;5.488;2023-04-03T03:03:27;4.10;99.90
26537;DHT22;14204;51.262;5.488;2023-04-03T03:08:32;4.10;99.90
26537;DHT22;14204;51.262;5.488;2023-04-03T03:10:58;4.00;99.90
26537;DHT22;14204;51.262;5.488;2023-04-03T03:13:23;4.10;99.90
26537;DHT22;14204;51.262;5.488;2023-04-03T03:15:49;4.00;99.90
26537;DHT22;14204;51.262;5.488;2023-04-03T03:18:15;4.00;99.90
26537;DHT22;14204;51.262;5.488;2023-04-03T03:20:41;4.00;99.90
26537;DHT22;14204;51.262;5.488;2023-04-03T03:23:06;4.00;99.90
26537;DHT22;14204;51.262;5.488;2023-04-03T03:25:32;4.00;99.90
26537;DHT22;14204;51.262;5.488;2023-04-03T03:27:58;4.00;99.90
26537;DHT22;14204;51.262;5.488;2023-04-03T03:30:23;4.00;99.90
26537;DHT22;14204;51.262;5.488;2023-04-03T03:32:49;3.90;99.90
26537;DHT22;14204;51.262;5.488;2023-04-03T03:35:14;4.00;99.90
26537;DHT22;14204;51.262;5.488;2023-04-03T03:37:40;4.00;99.90
26537;DHT22;14204;51.262;5.488;2023-04-03T03:40:06;3.90;99.90
26537;DHT22;14204;51.262;5.488;2023-04-03T03:42:32;4.00;99.90
26537;DHT22;14204;51.262;5.488;2023-04-03T03:44:58;4.00;99.90
26537;DHT22;14204;51.262;5.488;2023-04-03T03:47:23;4.00;99.90
26537;DHT22;14204;51.262;5.488;2023-04-03T03:49:49;4.00;99.90
26537;DHT22;14204;51.262;5.488;2023-04-03T03:52:15;3.90;99.90
26537;DHT22;14204;51.262;5.488;2023-04-03T03:54:40;3.90;99.90
26537;DHT22;14204;51.262;5.488;2023-04-03T03:57:06;3.80;99.90
26537;DHT22;14204;51.262;5.488;2023-04-03T03:59:32;3.90;99.90
26537;DHT22;14204;51.262;5.488;2023-04-03T04:01:57;3.90;99.90
26537;DHT22;14204;51.262;5.488;2023-04-03T04:04:23;3.90;99.90
26537;DHT22;14204;51.262;5.488;2023-04-03T04:06:48;3.90;99.90
26537;DHT22;14204;51.262;5.488;2023-04-03T04:09:14;3.80;99.90
26537;DHT22;14204;51.262;5.488;2023-04-03T04:11:39;3.80;99.90
26537;DHT22;14204;51.262;5.488;2023-04-03T04:14:06;3.80;99.90
26537;DHT22;14204;51.262;5.488;2023-04-03T04:16:32;3.80;99.90
26537;DHT22;14204;51.262;5.488;2023-04-03T04:18:58;3.80;99.90
26537;DHT22;14204;51.262;5.488;2023-04-03T04:21:23;3.70;99.90
26537;DHT22;14204;51.262;5.488;2023-04-03T04:23:49;3.80;99.90
26537;DHT22;14204;51.262;5.488;2023-04-03T04:26:15;3.80;99.90
26537;DHT22;14204;51.262;5.488;2023-04-03T04:28:40;3.70;99.90
26537;DHT22;14204;51.262;5.488;2023-04-03T04:31:06;3.80;99.90
26537;DHT22;14204;51.262;5.488;2023-04-03T04:33:32;3.70;99.90
26537;DHT22;14204;51.262;5.488;2023-04-03T04:35:57;3.70;99.90
26537;DHT22;14204;51.262;5.488;2023-04-03T04:38:23;3.70;99.90
26537;DHT22;14204;51.262;5.488;2023-04-03T04:40:49;3.70;99.90
26537;DHT22;14204;51.262;5.488;2023-04-03T04:43:14;3.60;99.90
26537;DHT22;14204;51.262;5.488;2023-04-03T04:45:41;3.60;99.90
26537;DHT22;14204;51.262;5.488;2023-04-03T04:48:07;3.60;99.90
26537;DHT22;14204;51.262;5.488;2023-04-03T04:50:33;3.70;99.90
26537;DHT22;14204;51.262;5.488;2023-04-03T04:52:58;3.60;99.90
26537;DHT22;14204;51.262;5.488;2023-04-03T04:55:24;3.60;99.90
26537;DHT22;14204;51.262;5.488;2023-04-03T04:57:49;3.50;99.90
26537;DHT22;14204;51.262;5.488;2023-04-03T05:00:15;3.50;99.90
26537;DHT22;14204;51.262;5.488;2023-04-03T05:02:41;3.50;99.90
26537;DHT22;14204;51.262;5.488;2023-04-03T05:05:07;3.50;99.90
26537;DHT22;14204;51.262;5.488;2023-04-03T05:07:33;3.50;99.90
26537;DHT22;14204;51.262;5.488;2023-04-03T05:10:02;3.50;99.90
26537;DHT22;14204;51.262;5.488;2023-04-03T05:12:29;3.50;99.90
26537;DHT22;14204;51.262;5.488;2023-04-03T05:14:54;3.50;99.90
26537;DHT22;14204;51.262;5.488;2023-04-03T05:17:20;3.40;99.90
26537;DHT22;14204;51.262;5.488;2023-04-03T05:19:46;3.40;99.90
26537;DHT22;14204;51.262;5.488;2023-04-03T05:22:11;3.50;99.90
26537;DHT22;14204;51.262;5.488;2023-04-03T05:24:37;3.50;99.90
26537;DHT22;14204;51.262;5.488;2023-04-03T05:27:03;3.40;99.90
26537;DHT22;14204;51.262;5.488;2023-04-03T05:29:29;3.40;99.90
26537;DHT22;14204;51.262;5.488;2023-04-03T05:31:55;3.50;99.90
26537;DHT22;14204;51.262;5.488;2023-04-03T05:34:21;3.40;99.90
26537;DHT22;14204;51.262;5.488;2023-04-03T05:36:47;3.40;99.90
26537;DHT22;14204;51.262;5.488;2023-04-03T05:39:12;3.40;99.90
26537;DHT22;14204;51.262;5.488;2023-04-03T05:41:38;3.40;99.90
26537;DHT22;14204;51.262;5.488;2023-04-03T05:44:03;3.40;99.90
26537;DHT22;14204;51.262;5.488;2023-04-03T05:46:29;3.40;99.90
26537;DHT22;14204;51.262;5.488;2023-04-03T05:48:55;3.50;99.90
26537;DHT22;14204;51.262;5.488;2023-04-03T05:51:27;3.40;99.90
26537;DHT22;14204;51.262;5.488;2023-04-03T05:54:16;3.50;99.90
26537;DHT22;14204;51.262;5.488;2023-04-03T05:56:43;3.40;99.90
26537;DHT22;14204;51.262;5.488;2023-04-03T05:59:09;3.50;99.90
26537;DHT22;14204;51.262;5.488;2023-04-03T06:01:34;3.50;99.90
26537;DHT22;14204;51.262;5.488;2023-04-03T06:04:00;3.40;99.90
26537;DHT22;14204;51.262;5.488;2023-04-03T06:06:26;3.40;99.90
26537;DHT22;14204;51.262;5.488;2023-04-03T06:09:07;3.30;99.90
26537;DHT22;14204;51.262;5.488;2023-04-03T06:11:33;3.30;99.90
26537;DHT22;14204;51.262;5.488;2023-04-03T06:13:59;3.30;99.90
26537;DHT22;14204;51.262;5.488;2023-04-03T06:16:26;3.40;99.90
26537;DHT22;14204;51.262;5.488;2023-04-03T06:18:51;3.30;99.90
26537;DHT22;14204;51.262;5.488;2023-04-03T06:21:17;3.40;99.90
26537;DHT22;14204;51.262;5.488;2023-04-03T06:23:42;3.40;99.90
26537;DHT22;14204;51.262;5.488;2023-04-03T06:26:08;3.40;99.90
26537;DHT22;14204;51.262;5.488;2023-04-03T06:28:34;3.50;99.90
26537;DHT22;14204;51.262;5.488;2023-04-03T06:30:59;3.50;99.90
26537;DHT22;14204;51.262;5.488;2023-04-03T06:33:25;3.50;99.90
26537;DHT22;14204;51.262;5.488;2023-04-03T06:35:59;3.60;99.90
26537;DHT22;14204;51.262;5.488;2023-04-03T06:38:24;3.70;99.90
26537;DHT22;14204;51.262;5.488;2023-04-03T06:40:51;3.80;99.90
26537;DHT22;14204;51.262;5.488;2023-04-03T06:43:17;3.80;99.90
26537;DHT22;14204;51.262;5.488;2023-04-03T06:45:42;3.90;99.90
26537;DHT22;14204;51.262;5.488;2023-04-03T06:48:08;3.90;99.90
26537;DHT22;14204;51.262;5.488;2023-04-03T06:50:34;3.80;99.90
26537;DHT22;14204;51.262;5.488;2023-04-03T06:53:00;3.90;99.90
26537;DHT22;14204;51.262;5.488;2023-04-03T06:55:26;3.90;99.90
26537;DHT22;14204;51.262;5.488;2023-04-03T06:57:52;3.90;99.90
26537;DHT22;14204;51.262;5.488;2023-04-03T07:00:18;3.80;99.90
26537;DHT22;14204;51.262;5.488;2023-04-03T07:02:44;3.90;99.90
26537;DHT22;14204;51.262;5.488;2023-04-03T07:05:10;4.10;99.90
26537;DHT22;14204;51.262;5.488;2023-04-03T07:07:37;4.10;99.90
26537;DHT22;14204;51.262;5.488;2023-04-03T07:10:04;4.20;99.90
26537;DHT22;14204;51.262;5.488;2023-04-03T07:12:30;4.20;99.90
26537;DHT22;14204;51.262;5.488;2023-04-03T07:14:55;4.20;99.90
26537;DHT22;14204;51.262;5.488;2023-04-03T07:17:21;4.20;99.90
26537;DHT22;14204;51.262;5.488;2023-04-03T07:19:47;4.30;99.90
26537;DHT22;14204;51.262;5.488;2023-04-03T07:22:12;4.40;99.90
26537;DHT22;14204;51.262;5.488;2023-04-03T07:24:38;4.40;99.90
26537;DHT22;14204;51.262;5.488;2023-04-03T07:27:04;4.40;99.90
26537;DHT22;14204;51.262;5.488;2023-04-03T07:29:30;4.60;99.90
26537;DHT22;14204;51.262;5.488;2023-04-03T07:31:55;4.60;99.90
26537;DHT22;14204;51.262;5.488;2023-04-03T07:34:21;4.60;99.90
26537;DHT22;14204;51.262;5.488;2023-04-03T07:36:47;4.70;99.90
26537;DHT22;14204;51.262;5.488;2023-04-03T07:39:13;4.70;99.90
26537;DHT22;14204;51.262;5.488;2023-04-03T07:41:38;4.80;99.90
26537;DHT22;14204;51.262;5.488;2023-04-03T07:44:04;4.90;99.90
26537;DHT22;14204;51.262;5.488;2023-04-03T07:46:31;5.00;99.90
26537;DHT22;14204;51.262;5.488;2023-04-03T07:48:57;5.10;99.90
26537;DHT22;14204;51.262;5.488;2023-04-03T07:51:22;5.20;99.90
26537;DHT22;14204;51.262;5.488;2023-04-03T07:53:50;5.30;99.90
26537;DHT22;14204;51.262;5.488;2023-04-03T07:56:16;5.30;99.90
26537;DHT22;14204;51.262;5.488;2023-04-03T07:58:42;5.40;99.90
26537;DHT22;14204;51.262;5.488;2023-04-03T08:01:09;5.60;99.90
26537;DHT22;14204;51.262;5.488;2023-04-03T08:03:34;5.70;99.90
26537;DHT22;14204;51.262;5.488;2023-04-03T08:06:03;5.90;99.90
26537;DHT22;14204;51.262;5.488;2023-04-03T08:08:29;6.20;99.90
26537;DHT22;14204;51.262;5.488;2023-04-03T08:10:57;6.40;99.90
26537;DHT22;14204;51.262;5.488;2023-04-03T08:13:23;6.50;99.90
26537;DHT22;14204;51.262;5.488;2023-04-03T08:15:49;6.60;99.90
26537;DHT22;14204;51.262;5.488;2023-04-03T08:18:15;6.70;99.90
26537;DHT22;14204;51.262;5.488;2023-04-03T08:20:41;6.70;99.90
26537;DHT22;14204;51.262;5.488;2023-04-03T08:23:08;6.80;99.90
26537;DHT22;14204;51.262;5.488;2023-04-03T08:25:38;7.00;99.90
26537;DHT22;14204;51.262;5.488;2023-04-03T08:28:04;7.10;99.90
26537;DHT22;14204;51.262;5.488;2023-04-03T08:30:29;7.10;99.90
26537;DHT22;14204;51.262;5.488;2023-04-03T08:32:55;7.10;99.90
26537;DHT22;14204;51.262;5.488;2023-04-03T08:35:21;7.20;99.90
26537;DHT22;14204;51.262;5.488;2023-04-03T08:37:47;7.30;99.90
26537;DHT22;14204;51.262;5.488;2023-04-03T08:40:15;7.40;99.90
26537;DHT22;14204;51.262;5.488;2023-04-03T08:45:36;7.60;99.90
26537;DHT22;14204;51.262;5.488;2023-04-03T08:48:16;7.50;99.90
26537;DHT22;14204;51.262;5.488;2023-04-03T08:50:46;7.70;99.90
26537;DHT22;14204;51.262;5.488;2023-04-03T08:53:18;7.70;99.90
26537;DHT22;14204;51.262;5.488;2023-04-03T08:55:46;7.60;99.90
26537;DHT22;14204;51.262;5.488;2023-04-03T08:58:19;7.80;99.90
26537;DHT22;14204;51.262;5.488;2023-04-03T09:00:57;7.80;99.90
26537;DHT22;14204;51.262;5.488;2023-04-03T09:03:24;7.90;99.90
26537;DHT22;14204;51.262;5.488;2023-04-03T09:06:06;8.00;99.90
26537;DHT22;14204;51.262;5.488;2023-04-03T09:08:51;8.10;99.90
26537;DHT22;14204;51.262;5.488;2023-04-03T09:11:25;8.30;99.90
26537;DHT22;14204;51.262;5.488;2023-04-03T09:14:02;8.20;99.90
26537;DHT22;14204;51.262;5.488;2023-04-03T09:17:03;8.40;99.90
26537;DHT22;14204;51.262;5.488;2023-04-03T09:20:02;8.50;99.90
26537;DHT22;14204;51.262;5.488;2023-04-03T09:22:31;8.80;99.90
26537;DHT22;14204;51.262;5.488;2023-04-03T09:25:10;8.90;99.90
26537;DHT22;14204;51.262;5.488;2023-04-03T09:27:39;9.00;99.90
26537;DHT22;14204;51.262;5.488;2023-04-03T09:30:05;8.90;99.90
26537;DHT22;14204;51.262;5.488;2023-04-03T09:32:34;9.00;99.90
26537;DHT22;14204;51.262;5.488;2023-04-03T09:37:40;9.10;99.90
26537;DHT22;14204;51.262;5.488;2023-04-03T09:42:58;9.50;99.90
26537;DHT22;14204;51.262;5.488;2023-04-03T09:45:33;9.60;99.90
26537;DHT22;14204;51.262;5.488;2023-04-03T09:50:56;9.60;99.90
26537;DHT22;14204;51.262;5.488;2023-04-03T09:53:34;9.60;99.90
26537;DHT22;14204;51.262;5.488;2023-04-03T09:56:03;9.80;99.90
26537;DHT22;14204;51.262;5.488;2023-04-03T09:58:37;9.80;99.90
26537;DHT22;14204;51.262;5.488;2023-04-03T10:01:04;9.80;99.90
26537;DHT22;14204;51.262;5.488;2023-04-03T10:03:35;9.60;99.90
26537;DHT22;14204;51.262;5.488;2023-04-03T10:06:03;9.80;99.90
26537;DHT22;14204;51.262;5.488;2023-04-03T10:08:34;10.10;99.90
26537;DHT22;14204;51.262;5.488;2023-04-03T10:11:17;10.10;99.90
26537;DHT22;14204;51.262;5.488;2023-04-03T10:14:01;10.40;99.90
26537;DHT22;14204;51.262;5.488;2023-04-03T10:16:52;10.20;99.90
26537;DHT22;14204;51.262;5.488;2023-04-03T10:19:40;10.40;99.90
26537;DHT22;14204;51.262;5.488;2023-04-03T10:22:32;10.30;99.90
26537;DHT22;14204;51.262;5.488;2023-04-03T10:25:20;10.20;99.70
26537;DHT22;14204;51.262;5.488;2023-04-03T10:35:34;10.60;99.90
26537;DHT22;14204;51.262;5.488;2023-04-03T10:41:34;10.90;99.90
26537;DHT22;14204;51.262;5.488;2023-04-03T10:44:28;10.90;98.80
26537;DHT22;14204;51.262;5.488;2023-04-03T10:47:04;10.70;98.80
26537;DHT22;14204;51.262;5.488;2023-04-03T10:49:37;10.80;98.80
26537;DHT22;14204;51.262;5.488;2023-04-03T10:52:24;11.00;98.20
26537;DHT22;14204;51.262;5.488;2023-04-03T10:57:24;10.80;95.80
26537;DHT22;14204;51.262;5.488;2023-04-03T10:59:58;11.10;99.90
26537;DHT22;14204;51.262;5.488;2023-04-03T11:02:33;10.80;95.10
26537;DHT22;14204;51.262;5.488;2023-04-03T11:05:04;10.80;95.20
26537;DHT22;14204;51.262;5.488;2023-04-03T11:07:39;11.00;98.00
26537;DHT22;14204;51.262;5.488;2023-04-03T11:10:15;11.30;96.30
26537;DHT22;14204;51.262;5.488;2023-04-03T11:12:58;11.50;97.10
26537;DHT22;14204;51.262;5.488;2023-04-03T11:15:25;11.30;94.60
26537;DHT22;14204;51.262;5.488;2023-04-03T11:18:04;11.20;94.80
26537;DHT22;14204;51.262;5.488;2023-04-03T11:20:33;11.10;94.60
26537;DHT22;14204;51.262;5.488;2023-04-03T11:23:05;11.10;95.50
26537;DHT22;14204;51.262;5.488;2023-04-03T11:25:34;11.30;96.90
26537;DHT22;14204;51.262;5.488;2023-04-03T11:28:05;11.50;96.10
26537;DHT22;14204;51.262;5.488;2023-04-03T11:30:45;11.70;99.20
26537;DHT22;14204;51.262;5.488;2023-04-03T11:33:31;11.70;98.00
26537;DHT22;14204;51.262;5.488;2023-04-03T11:38:46;12.20;96.90
26537;DHT22;14204;51.262;5.488;2023-04-03T11:41:13;12.20;94.50
26537;DHT22;14204;51.262;5.488;2023-04-03T12:16:22;12.20;86.90
26537;DHT22;14204;51.262;5.488;2023-04-03T12:21:16;12.40;89.60
26537;DHT22;14204;51.262;5.488;2023-04-03T12:24:04;12.40;89.90
26537;DHT22;14204;51.262;5.488;2023-04-03T12:32:24;12.10;90.20
26537;DHT22;14204;51.262;5.488;2023-04-03T12:40:28;12.50;90.30
26537;DHT22;14204;51.262;5.488;2023-04-03T12:43:40;12.40;82.50
26537;DHT22;14204;51.262;5.488;2023-04-03T12:48:58;12.00;84.10
26537;DHT22;14204;51.262;5.488;2023-04-03T12:51:45;12.10;85.10
26537;DHT22;14204;51.262;5.488;2023-04-03T12:57:12;12.50;86.10
26537;DHT22;14204;51.262;5.488;2023-04-03T12:59:38;12.40;80.20
26537;DHT22;14204;51.262;5.488;2023-04-03T13:02:30;12.50;88.40
26537;DHT22;14204;51.262;5.488;2023-04-03T13:04:58;12.30;84.00
26537;DHT22;14204;51.262;5.488;2023-04-03T13:10:13;12.20;84.70
26537;DHT22;14204;51.262;5.488;2023-04-03T13:12:54;12.20;82.50
26537;DHT22;14204;51.262;5.488;2023-04-03T13:15:29;12.10;83.90
26537;DHT22;14204;51.262;5.488;2023-04-03T13:17:56;12.20;85.90
26537;DHT22;14204;51.262;5.488;2023-04-03T13:22:49;12.30;84.00
26537;DHT22;14204;51.262;5.488;2023-04-03T13:25:16;12.40;82.00
26537;DHT22;14204;51.262;5.488;2023-04-03T13:27:42;12.20;88.10
26537;DHT22;14204;51.262;5.488;2023-04-03T13:30:29;12.40;84.60
26537;DHT22;14204;51.262;5.488;2023-04-03T13:32:58;12.40;89.10
26537;DHT22;14204;51.262;5.488;2023-04-03T13:35:39;12.30;79.20
26537;DHT22;14204;51.262;5.488;2023-04-03T13:40:56;12.30;85.10
26537;DHT22;14204;51.262;5.488;2023-04-03T13:43:41;12.30;86.50
26537;DHT22;14204;51.262;5.488;2023-04-03T13:48:42;12.10;85.90
26537;DHT22;14204;51.262;5.488;2023-04-03T13:53:56;12.10;86.50
26537;DHT22;14204;51.262;5.488;2023-04-03T13:56:35;11.80;89.30
26537;DHT22;14204;51.262;5.488;2023-04-03T14:01:47;11.80;85.70
26537;DHT22;14204;51.262;5.488;2023-04-03T14:04:19;11.90;89.90
26537;DHT22;14204;51.262;5.488;2023-04-03T14:06:46;11.70;91.50
26537;DHT22;14204;51.262;5.488;2023-04-03T14:09:13;11.80;91.40
26537;DHT22;14204;51.262;5.488;2023-04-03T14:11:41;11.80;87.00
26537;DHT22;14204;51.262;5.488;2023-04-03T14:14:19;11.70;91.60
26537;DHT22;14204;51.262;5.488;2023-04-03T14:16:50;11.70;91.50
26537;DHT22;14204;51.262;5.488;2023-04-03T14:19:28;11.80;90.90
26537;DHT22;14204;51.262;5.488;2023-04-03T14:21:55;11.70;89.30
26537;DHT22;14204;51.262;5.488;2023-04-03T14:24:22;11.40;90.50
26537;DHT22;14204;51.262;5.488;2023-04-03T14:26:50;11.40;92.90
26537;DHT22;14204;51.262;5.488;2023-04-03T14:29:16;11.40;90.60
26537;DHT22;14204;51.262;5.488;2023-04-03T14:31:43;11.50;94.40
26537;DHT22;14204;51.262;5.488;2023-04-03T14:34:13;11.80;92.60
26537;DHT22;14204;51.262;5.488;2023-04-03T14:36:40;11.90;93.50
26537;DHT22;14204;51.262;5.488;2023-04-03T14:39:07;11.80;90.20
26537;DHT22;14204;51.262;5.488;2023-04-03T14:41:34;11.90;91.70
26537;DHT22;14204;51.262;5.488;2023-04-03T14:44:00;11.80;91.70
26537;DHT22;14204;51.262;5.488;2023-04-03T14:46:31;11.70;91.80
26537;DHT22;14204;51.262;5.488;2023-04-03T14:48:58;11.60;92.10
26537;DHT22;14204;51.262;5.488;2023-04-03T14:51:24;11.50;90.00
26537;DHT22;14204;51.262;5.488;2023-04-03T14:53:51;11.50;89.60
26537;DHT22;14204;51.262;5.488;2023-04-03T14:56:21;11.40;91.30
26537;DHT22;14204;51.262;5.488;2023-04-03T14:58:48;11.40;92.90
26537;DHT22;14204;51.262;5.488;2023-04-03T15:01:17;11.30;91.60
26537;DHT22;14204;51.262;5.488;2023-04-03T15:03:42;11.40;92.80
26537;DHT22;14204;51.262;5.488;2023-04-03T15:06:13;11.40;91.50
26537;DHT22;14204;51.262;5.488;2023-04-03T15:08:39;11.50;91.60
26537;DHT22;14204;51.262;5.488;2023-04-03T15:11:08;11.40;90.60
26537;DHT22;14204;51.262;5.488;2023-04-03T15:13:33;11.40;90.50
26537;DHT22;14204;51.262;5.488;2023-04-03T15:15:59;11.20;90.90
26537;DHT22;14204;51.262;5.488;2023-04-03T15:18:27;11.00;91.50
26537;DHT22;14204;51.262;5.488;2023-04-03T15:20:54;11.00;91.70
26537;DHT22;14204;51.262;5.488;2023-04-03T15:23:20;11.10;92.20
26537;DHT22;14204;51.262;5.488;2023-04-03T15:25:51;11.00;92.60
26537;DHT22;14204;51.262;5.488;2023-04-03T15:28:31;11.00;93.00
26537;DHT22;14204;51.262;5.488;2023-04-03T15:30:58;11.10;92.20
26537;DHT22;14204;51.262;5.488;2023-04-03T15:33:24;10.90;92.60
26537;DHT22;14204;51.262;5.488;2023-04-03T15:35:50;10.80;91.30
26537;DHT22;14204;51.262;5.488;2023-04-03T15:38:16;10.80;91.60
26537;DHT22;14204;51.262;5.488;2023-04-03T15:40:41;10.90;91.90
26537;DHT22;14204;51.262;5.488;2023-04-03T15:43:08;10.80;92.30
26537;DHT22;14204;51.262;5.488;2023-04-03T15:45:35;11.00;93.40
26537;DHT22;14204;51.262;5.488;2023-04-03T15:48:02;11.00;93.30
26537;DHT22;14204;51.262;5.488;2023-04-03T15:50:29;11.00;92.50
26537;DHT22;14204;51.262;5.488;2023-04-03T15:52:54;10.90;92.10
26537;DHT22;14204;51.262;5.488;2023-04-03T15:55:22;10.90;92.20
26537;DHT22;14204;51.262;5.488;2023-04-03T15:57:48;10.80;93.10
26537;DHT22;14204;51.262;5.488;2023-04-03T16:00:14;10.90;93.00
26537;DHT22;14204;51.262;5.488;2023-04-03T16:02:40;10.80;93.00
26537;DHT22;14204;51.262;5.488;2023-04-03T16:05:07;10.70;91.50
26537;DHT22;14204;51.262;5.488;2023-04-03T16:07:32;10.80;92.50
26537;DHT22;14204;51.262;5.488;2023-04-03T16:09:58;10.70;94.00
26537;DHT22;14204;51.262;5.488;2023-04-03T16:12:24;10.70;92.70
26537;DHT22;14204;51.262;5.488;2023-04-03T16:14:50;10.80;93.90
26537;DHT22;14204;51.262;5.488;2023-04-03T16:17:17;10.80;94.70
26537;DHT22;14204;51.262;5.488;2023-04-03T16:19:42;10.80;93.00
26537;DHT22;14204;51.262;5.488;2023-04-03T16:22:08;10.70;93.20
26537;DHT22;14204;51.262;5.488;2023-04-03T16:24:34;10.60;93.80
26537;DHT22;14204;51.262;5.488;2023-04-03T16:27:01;10.40;93.30
26537;DHT22;14204;51.262;5.488;2023-04-03T16:29:26;10.40;93.10
26537;DHT22;14204;51.262;5.488;2023-04-03T16:31:52;10.50;94.10
26537;DHT22;14204;51.262;5.488;2023-04-03T16:34:18;10.50;93.80
26537;DHT22;14204;51.262;5.488;2023-04-03T16:36:44;10.40;93.10
26537;DHT22;14204;51.262;5.488;2023-04-03T16:39:09;10.20;91.90
26537;DHT22;14204;51.262;5.488;2023-04-03T16:41:35;10.30;93.80
26537;DHT22;14204;51.262;5.488;2023-04-03T16:44:01;10.20;93.70
26537;DHT22;14204;51.262;5.488;2023-04-03T16:46:27;10.20;93.20
26537;DHT22;14204;51.262;5.488;2023-04-03T16:48:53;10.20;94.10
26537;DHT22;14204;51.262;5.488;2023-04-03T16:51:19;10.20;94.20
26537;DHT22;14204;51.262;5.488;2023-04-03T16:53:45;10.30;95.50
26537;DHT22;14204;51.262;5.488;2023-04-03T16:56:10;10.10;94.30
26537;DHT22;14204;51.262;5.488;2023-04-03T16:58:36;10.10;94.60
26537;DHT22;14204;51.262;5.488;2023-04-03T17:01:10;9.90;93.80
26537;DHT22;14204;51.262;5.488;2023-04-03T17:03:35;9.90;94.00
26537;DHT22;14204;51.262;5.488;2023-04-03T17:06:01;9.90;94.60
26537;DHT22;14204;51.262;5.488;2023-04-03T17:08:27;9.90;95.00
26537;DHT22;14204;51.262;5.488;2023-04-03T17:10:52;9.80;94.50
26537;DHT22;14204;51.262;5.488;2023-04-03T17:13:19;9.70;94.10
26537;DHT22;14204;51.262;5.488;2023-04-03T17:15:44;9.80;95.40
26537;DHT22;14204;51.262;5.488;2023-04-03T17:18:10;9.90;95.50
26537;DHT22;14204;51.262;5.488;2023-04-03T17:20:36;9.90;94.30
26537;DHT22;14204;51.262;5.488;2023-04-03T17:23:04;9.70;95.10
26537;DHT22;14204;51.262;5.488;2023-04-03T17:25:30;9.60;95.20
26537;DHT22;14204;51.262;5.488;2023-04-03T17:27:55;9.60;94.70
26537;DHT22;14204;51.262;5.488;2023-04-03T17:30:21;9.50;95.30
26537;DHT22;14204;51.262;5.488;2023-04-03T17:32:47;9.50;95.00
26537;DHT22;14204;51.262;5.488;2023-04-03T17:35:13;9.40;96.00
26537;DHT22;14204;51.262;5.488;2023-04-03T17:37:38;9.60;96.30
26537;DHT22;14204;51.262;5.488;2023-04-03T17:40:05;9.40;95.60